createdAt,value
2024-01-30T00:00:01.434Z,21.86
2024-01-30T00:02:07.078Z,21.87
2024-01-30T00:04:12.600Z,21.88
2024-01-30T00:06:18.127Z,21.89
2024-01-30T00:08:23.737Z,21.9
2024-01-30T00:10:29.372Z,21.9
2024-01-30T00:12:35.070Z,21.9
2024-01-30T00:14:40.608Z,21.91
2024-01-30T00:16:46.140Z,21.92
2024-01-30T00:18:51.709Z,21.92
2024-01-30T00:20:57.422Z,21.93
2024-01-30T00:23:02.881Z,21.93
2024-01-30T00:25:08.319Z,21.94
2024-01-30T00:27:13.841Z,21.95
2024-01-30T00:29:19.285Z,21.96
2024-01-30T00:31:25.178Z,21.97
2024-01-30T00:33:30.910Z,21.97
2024-01-30T00:35:36.438Z,21.98
2024-01-30T00:37:41.976Z,21.99
2024-01-30T00:39:47.431Z,22
2024-01-30T00:41:53.074Z,22
2024-01-30T00:43:58.609Z,22.01
2024-01-30T00:46:04.055Z,22.02
2024-01-30T00:48:09.757Z,22.03
2024-01-30T00:50:15.488Z,22.04
2024-01-30T00:52:21.002Z,22.05
2024-01-30T00:54:27.328Z,22.06
2024-01-30T00:56:32.689Z,22.06
2024-01-30T00:58:38.012Z,22.08
2024-01-30T01:00:43.500Z,22.08
2024-01-30T01:02:49.341Z,22.09
2024-01-30T01:04:54.843Z,22.09
2024-01-30T01:07:00.460Z,22.1
2024-01-30T01:09:06.251Z,22.1
2024-01-30T01:11:11.679Z,22.11
2024-01-30T01:13:17.161Z,22.11
2024-01-30T01:15:22.983Z,22.12
2024-01-30T01:17:33.666Z,22.14
2024-01-30T01:19:39.241Z,22.15
2024-01-30T01:21:44.873Z,22.17
2024-01-30T01:23:50.371Z,22.18
2024-01-30T01:25:57.653Z,22.18
2024-01-30T01:28:05.756Z,22.19
2024-01-30T01:30:11.336Z,22.2
2024-01-30T01:32:16.729Z,22.21
2024-01-30T01:34:22.270Z,22.21
2024-01-30T01:36:33.142Z,22.22
2024-01-30T01:38:38.492Z,22.23
2024-01-30T01:40:44.032Z,22.23
2024-01-30T01:42:49.504Z,22.24
2024-01-30T01:44:54.910Z,22.26
2024-01-30T01:47:00.975Z,22.25
2024-01-30T01:49:06.468Z,22.26
2024-01-30T01:51:12.078Z,22.26
2024-01-30T01:53:17.590Z,22.26
2024-01-30T01:55:23.142Z,22.26
2024-01-30T01:57:29.081Z,22.26
2024-01-30T01:59:34.419Z,22.26
2024-01-30T02:01:39.735Z,22.27
2024-01-30T02:03:45.584Z,22.26
2024-01-30T02:05:51.363Z,22.26
2024-01-30T02:07:56.946Z,22.26
2024-01-30T02:10:02.982Z,22.26
2024-01-30T02:12:08.500Z,22.26
2024-01-30T02:14:14.056Z,22.25
2024-01-30T02:16:19.495Z,22.25
2024-01-30T02:18:25.542Z,22.23
2024-01-30T02:20:31.010Z,22.22
2024-01-30T02:22:36.528Z,22.22
2024-01-30T02:24:42.174Z,22.21
2024-01-30T02:26:47.505Z,22.19
2024-01-30T02:29:15.981Z,22.15
2024-01-30T02:31:21.411Z,22.14
2024-01-30T02:33:26.878Z,22.13
2024-01-30T02:35:32.342Z,22.12
2024-01-30T02:37:37.830Z,22.11
2024-01-30T02:39:43.319Z,22.09
2024-01-30T02:41:48.627Z,22.07
2024-01-30T02:43:53.866Z,22.04
2024-01-30T02:45:59.355Z,22.02
2024-01-30T02:48:05.300Z,22
2024-01-30T02:50:10.863Z,21.98
2024-01-30T02:52:16.808Z,21.95
2024-01-30T02:54:22.189Z,21.93
2024-01-30T02:56:27.528Z,21.91
2024-01-30T02:58:33.084Z,21.88
2024-01-30T03:00:38.856Z,21.87
2024-01-30T03:02:44.662Z,21.84
2024-01-30T03:04:50.129Z,21.81
2024-01-30T03:06:56.132Z,21.79
2024-01-30T03:09:02.010Z,21.78
2024-01-30T03:11:07.448Z,21.77
2024-01-30T03:13:12.925Z,21.75
2024-01-30T03:15:18.537Z,21.73
2024-01-30T03:17:23.985Z,21.72
2024-01-30T03:19:29.762Z,21.71
2024-01-30T03:21:35.473Z,21.69
2024-01-30T03:23:40.711Z,21.68
2024-01-30T03:25:46.049Z,21.68
2024-01-30T03:27:51.421Z,21.67
2024-01-30T03:29:57.262Z,21.67
2024-01-30T03:32:02.518Z,21.66
2024-01-30T03:34:07.959Z,21.66
2024-01-30T03:36:13.675Z,21.67
2024-01-30T03:38:19.026Z,21.67
2024-01-30T03:40:24.451Z,21.65
2024-01-30T03:42:29.994Z,21.66
2024-01-30T03:44:35.249Z,21.69
2024-01-30T03:46:40.451Z,21.71
2024-01-30T03:48:45.809Z,21.75
2024-01-30T03:50:51.555Z,21.76
2024-01-30T03:52:56.993Z,21.77
2024-01-30T03:55:02.359Z,21.77
2024-01-30T03:57:07.920Z,21.76
2024-01-30T03:59:13.429Z,21.75
2024-01-30T04:01:19.097Z,21.74
2024-01-30T04:03:24.943Z,21.73
2024-01-30T04:05:30.482Z,21.73
2024-01-30T04:07:36.033Z,21.72
2024-01-30T04:09:41.567Z,21.72
2024-01-30T04:11:47.092Z,21.72
2024-01-30T04:13:52.717Z,21.72
2024-01-30T04:15:58.210Z,21.72
2024-01-30T04:18:03.854Z,21.72
2024-01-30T04:20:09.560Z,21.72
2024-01-30T04:22:15.238Z,21.73
2024-01-30T04:24:20.648Z,21.74
2024-01-30T04:26:26.191Z,21.75
2024-01-30T04:28:31.928Z,21.74
2024-01-30T04:30:37.473Z,21.75
2024-01-30T04:32:42.939Z,21.76
2024-01-30T04:34:48.558Z,21.77
2024-01-30T04:36:54.346Z,21.77
2024-01-30T04:38:59.746Z,21.78
2024-01-30T04:41:05.079Z,21.79
2024-01-30T04:43:10.466Z,21.8
2024-01-30T04:45:16.170Z,21.81
2024-01-30T04:47:21.419Z,21.81
2024-01-30T04:49:26.941Z,21.82
2024-01-30T04:51:32.797Z,21.82
2024-01-30T04:53:38.249Z,21.83
2024-01-30T04:55:43.672Z,21.85
2024-01-30T04:57:49.078Z,21.86
2024-01-30T04:59:54.656Z,21.86
2024-01-30T05:02:00.200Z,21.87
2024-01-30T05:04:06.105Z,21.88
2024-01-30T05:06:11.722Z,21.88
2024-01-30T05:08:17.459Z,21.87
2024-01-30T05:10:22.852Z,21.87
2024-01-30T05:12:28.644Z,21.89
2024-01-30T05:14:33.976Z,21.9
2024-01-30T05:16:39.741Z,21.9
2024-01-30T05:18:45.291Z,21.91
2024-01-30T05:20:51.026Z,21.92
2024-01-30T05:22:56.452Z,21.93
2024-01-30T05:25:01.929Z,21.95
2024-01-30T05:27:07.457Z,21.97
2024-01-30T05:29:13.120Z,21.98
2024-01-30T05:31:18.332Z,21.98
2024-01-30T05:33:23.888Z,21.99
2024-01-30T05:35:29.713Z,22
2024-01-30T05:37:35.254Z,22
2024-01-30T05:39:40.620Z,22.01
2024-01-30T05:41:46.249Z,21.99
2024-01-30T05:43:51.980Z,21.99
2024-01-30T05:45:57.227Z,21.98
2024-01-30T05:48:02.791Z,21.98
2024-01-30T05:50:08.554Z,21.98
2024-01-30T05:52:14.095Z,21.97
2024-01-30T05:54:19.608Z,21.96
2024-01-30T05:56:25.153Z,21.97
2024-01-30T05:58:30.606Z,21.97
2024-01-30T06:00:36.025Z,21.97
2024-01-30T06:02:41.425Z,21.96
2024-01-30T06:04:46.784Z,21.96
2024-01-30T06:06:52.470Z,21.97
2024-01-30T06:08:58.296Z,21.97
2024-01-30T06:11:03.731Z,21.97
2024-01-30T06:13:09.307Z,21.98
2024-01-30T06:15:14.608Z,21.98
2024-01-30T06:17:19.947Z,21.98
2024-01-30T06:19:25.429Z,21.98
2024-01-30T06:21:31.343Z,21.99
2024-01-30T06:23:36.903Z,22
2024-01-30T06:25:42.436Z,22
2024-01-30T06:27:47.887Z,22
2024-01-30T06:29:53.304Z,22.01
2024-01-30T06:31:58.869Z,22.01
2024-01-30T06:34:04.335Z,22.01
2024-01-30T06:36:09.847Z,22.02
2024-01-30T06:38:15.182Z,22.04
2024-01-30T06:40:20.667Z,22.06
2024-01-30T06:42:26.382Z,22.08
2024-01-30T06:44:33.324Z,22.1
2024-01-30T06:46:39.319Z,22.1
2024-01-30T06:48:45.281Z,22.14
2024-01-30T06:50:50.616Z,22.17
2024-01-30T06:52:56.008Z,22.2
2024-01-30T06:55:01.569Z,22.25
2024-01-30T06:57:07.199Z,22.3
2024-01-30T06:59:12.503Z,22.34
2024-01-30T07:01:17.930Z,22.37
2024-01-30T07:03:23.865Z,22.38
2024-01-30T07:05:29.487Z,22.39
2024-01-30T07:07:34.878Z,22.38
2024-01-30T07:09:40.293Z,22.37
2024-01-30T07:11:45.818Z,22.37
2024-01-30T07:13:51.373Z,22.36
2024-01-30T07:15:56.921Z,22.34
2024-01-30T07:18:02.396Z,22.32
2024-01-30T07:20:08.168Z,22.32
2024-01-30T07:22:20.303Z,22.3
2024-01-30T07:24:26.194Z,22.29
2024-01-30T07:26:31.699Z,22.29
2024-01-30T07:28:37.033Z,22.3
2024-01-30T07:30:42.486Z,22.3
2024-01-30T07:32:47.933Z,22.3
2024-01-30T07:34:59.109Z,22.3
2024-01-30T07:37:14.263Z,22.3
2024-01-30T07:39:19.684Z,22.29
2024-01-30T07:41:25.127Z,22.28
2024-01-30T07:43:30.635Z,22.28
2024-01-30T07:45:36.325Z,22.27
2024-01-30T07:47:41.974Z,22.27
2024-01-30T07:49:47.437Z,22.27
2024-01-30T07:51:53.462Z,22.27
2024-01-30T07:53:59.010Z,22.29
2024-01-30T07:56:04.296Z,22.3
2024-01-30T07:58:09.501Z,22.32
2024-01-30T08:00:15.008Z,22.34
2024-01-30T08:02:20.339Z,22.35
2024-01-30T08:04:25.720Z,22.36
2024-01-30T08:06:31.549Z,22.36
2024-01-30T08:08:37.582Z,22.36
2024-01-30T08:10:43.240Z,22.35
2024-01-30T08:12:48.924Z,22.34
2024-01-30T08:14:54.428Z,22.33
2024-01-30T08:16:59.974Z,22.33
2024-01-30T08:19:05.501Z,22.32
2024-01-30T08:21:11.364Z,22.3
2024-01-30T08:23:16.692Z,22.3
2024-01-30T08:25:22.190Z,22.29
2024-01-30T08:27:27.677Z,22.29
2024-01-30T08:29:33.032Z,22.29
2024-01-30T08:31:38.722Z,22.29
2024-01-30T08:33:45.802Z,22.29
2024-01-30T08:35:54.873Z,22.3
2024-01-30T08:38:01.433Z,22.29
2024-01-30T08:40:07.302Z,22.3
2024-01-30T08:42:12.954Z,22.31
2024-01-30T08:44:18.598Z,22.31
2024-01-30T08:46:24.168Z,22.31
2024-01-30T08:48:30.341Z,22.31
2024-01-30T08:50:36.143Z,22.32
2024-01-30T08:52:41.669Z,22.32
2024-01-30T08:54:50.326Z,22.34
2024-01-30T08:56:56.037Z,22.34
2024-01-30T08:59:01.579Z,22.35
2024-01-30T09:01:07.045Z,22.36
2024-01-30T09:03:12.673Z,22.36
2024-01-30T09:05:18.190Z,22.38
2024-01-30T09:07:24.027Z,22.38
2024-01-30T09:09:29.664Z,22.39
2024-01-30T09:11:35.156Z,22.4
2024-01-30T09:13:41.311Z,22.4
2024-01-30T09:15:46.863Z,22.41
2024-01-30T09:17:52.627Z,22.41
2024-01-30T09:19:58.109Z,22.42
2024-01-30T09:22:03.789Z,22.43
2024-01-30T09:24:09.742Z,22.44
2024-01-30T09:26:15.177Z,22.45
2024-01-30T09:28:20.683Z,22.46
2024-01-30T09:30:31.280Z,22.47
2024-01-30T09:32:36.845Z,22.48
2024-01-30T09:34:42.621Z,22.49
2024-01-30T09:36:48.344Z,22.5
2024-01-30T09:38:53.870Z,22.51
2024-01-30T09:40:59.224Z,22.52
2024-01-30T09:43:04.576Z,22.53
2024-01-30T09:45:10.184Z,22.54
2024-01-30T09:47:15.612Z,22.55
2024-01-30T09:49:21.386Z,22.57
2024-01-30T09:51:27.017Z,22.59
2024-01-30T09:53:32.574Z,22.6
2024-01-30T09:55:38.260Z,22.61
2024-01-30T09:57:44.495Z,22.63
2024-01-30T09:59:50.011Z,22.64
2024-01-30T10:01:55.366Z,22.65
2024-01-30T10:04:01.317Z,22.67
2024-01-30T10:06:07.145Z,22.68
2024-01-30T10:08:12.518Z,22.7
2024-01-30T10:10:18.573Z,22.71
2024-01-30T10:12:24.189Z,22.73
2024-01-30T10:14:29.840Z,22.74
2024-01-30T10:16:35.324Z,22.75
2024-01-30T10:18:42.128Z,22.76
2024-01-30T10:20:49.763Z,22.78
2024-01-30T10:22:55.285Z,22.8
2024-01-30T10:25:04.404Z,22.81
2024-01-30T10:27:11.796Z,22.83
2024-01-30T10:29:17.337Z,22.84
2024-01-30T10:31:23.133Z,22.86
2024-01-30T10:33:28.995Z,22.88
2024-01-30T10:35:35.405Z,22.89
2024-01-30T10:37:41.154Z,22.9
2024-01-30T10:39:46.928Z,22.92
2024-01-30T10:41:52.557Z,22.94
2024-01-30T10:43:58.028Z,22.96
2024-01-30T10:46:04.049Z,22.97
2024-01-30T10:48:09.961Z,22.99
2024-01-30T10:50:15.930Z,23
2024-01-30T10:52:22.153Z,23.02
2024-01-30T10:54:27.733Z,23.03
2024-01-30T10:56:33.188Z,23.04
2024-01-30T10:58:38.615Z,23.06
2024-01-30T11:00:44.078Z,23.07
2024-01-30T11:02:49.854Z,23.09
2024-01-30T11:04:56.042Z,23.1
2024-01-30T11:07:02.263Z,23.12
2024-01-30T11:09:08.088Z,23.13
2024-01-30T11:11:15.100Z,23.16
2024-01-30T11:13:23.185Z,23.18
2024-01-30T11:15:28.903Z,23.2
2024-01-30T11:17:34.584Z,23.21
2024-01-30T11:19:40.257Z,23.23
2024-01-30T11:21:46.163Z,23.25
2024-01-30T11:23:51.592Z,23.27
2024-01-30T11:25:57.654Z,23.28
2024-01-30T11:28:03.196Z,23.29
2024-01-30T11:30:08.948Z,23.29
2024-01-30T11:32:14.383Z,23.29
2024-01-30T11:34:22.239Z,23.28
2024-01-30T11:36:27.922Z,23.28
2024-01-30T11:38:33.874Z,23.28
2024-01-30T11:40:39.384Z,23.29
2024-01-30T11:42:45.602Z,23.29
2024-01-30T11:44:51.123Z,23.3
2024-01-30T11:46:57.075Z,23.3
2024-01-30T11:49:02.593Z,23.3
2024-01-30T11:51:08.156Z,23.3
2024-01-30T11:53:13.702Z,23.3
2024-01-30T11:55:19.467Z,23.28
2024-01-30T11:57:25.413Z,23.29
2024-01-30T11:59:30.932Z,23.28
2024-01-30T12:01:36.353Z,23.28
2024-01-30T12:03:42.240Z,23.29
2024-01-30T12:05:47.788Z,23.3
2024-01-30T12:07:53.369Z,23.29
2024-01-30T12:09:59.397Z,23.3
2024-01-30T12:12:04.905Z,23.31
2024-01-30T12:14:10.243Z,23.31
2024-01-30T12:16:15.936Z,23.32
2024-01-30T12:18:21.626Z,23.32
2024-01-30T12:20:27.170Z,23.31
2024-01-30T12:22:35.704Z,23.31
2024-01-30T12:24:41.348Z,23.31
2024-01-30T12:26:46.896Z,23.3
2024-01-30T12:28:52.471Z,23.28
2024-01-30T12:30:57.998Z,23.26
2024-01-30T12:33:03.580Z,23.25
2024-01-30T12:35:09.386Z,23.24
2024-01-30T12:37:15.291Z,23.23
2024-01-30T12:39:20.903Z,23.22
2024-01-30T12:41:26.412Z,23.21
2024-01-30T12:43:35.085Z,23.2
2024-01-30T12:45:44.343Z,23.19
2024-01-30T12:47:49.961Z,23.18
2024-01-30T12:49:56.383Z,23.18
2024-01-30T12:52:02.659Z,23.19
2024-01-30T12:54:08.288Z,23.17
2024-01-30T12:56:13.699Z,23.17
2024-01-30T12:58:19.165Z,23.16
2024-01-30T13:00:24.688Z,23.15
2024-01-30T13:02:30.142Z,23.14
2024-01-30T13:04:35.768Z,23.14
2024-01-30T13:06:41.637Z,23.13
2024-01-30T13:08:47.090Z,23.12
2024-01-30T13:10:52.637Z,23.11
2024-01-30T13:12:58.180Z,23.1
2024-01-30T13:15:03.697Z,23.09
2024-01-30T13:17:09.464Z,23.09
2024-01-30T13:19:15.105Z,23.08
2024-01-30T13:21:20.644Z,23.08
2024-01-30T13:23:26.087Z,23.07
2024-01-30T13:25:31.484Z,23.07
2024-01-30T13:27:37.051Z,23.06
2024-01-30T13:29:42.902Z,23.06
2024-01-30T13:31:48.452Z,23.05
2024-01-30T13:33:53.944Z,23.04
2024-01-30T13:35:59.551Z,23.03
2024-01-30T13:38:04.871Z,23.03
2024-01-30T13:40:12.804Z,23.01
2024-01-30T13:42:23.948Z,23.01
2024-01-30T13:44:29.588Z,23
2024-01-30T13:46:35.251Z,23
2024-01-30T13:48:40.804Z,22.99
2024-01-30T13:50:46.430Z,22.98
2024-01-30T13:52:51.859Z,22.98
2024-01-30T13:54:58.339Z,22.95
2024-01-30T13:57:04.212Z,22.94
2024-01-30T13:59:09.685Z,22.94
2024-01-30T14:01:15.458Z,22.94
2024-01-30T14:03:21.524Z,22.96
2024-01-30T14:05:27.000Z,22.98
2024-01-30T14:07:33.087Z,22.98
2024-01-30T14:09:38.877Z,22.99
2024-01-30T14:11:44.411Z,23
2024-01-30T14:13:49.868Z,23.02
2024-01-30T14:15:55.331Z,23.04
2024-01-30T14:18:02.100Z,23.04
2024-01-30T14:20:10.482Z,23.06
2024-01-30T14:22:16.077Z,23.07
2024-01-30T14:24:21.769Z,23.09
2024-01-30T14:26:27.401Z,23.09
2024-01-30T14:28:32.887Z,23.11
2024-01-30T14:30:38.506Z,23.11
2024-01-30T14:32:44.054Z,23.13
2024-01-30T14:34:49.555Z,23.16
2024-01-30T14:36:55.240Z,23.16
2024-01-30T14:39:00.874Z,23.17
2024-01-30T14:41:06.523Z,23.18
2024-01-30T14:43:12.080Z,23.18
2024-01-30T14:45:17.637Z,23.2
2024-01-30T14:47:23.156Z,23.2
2024-01-30T14:49:28.918Z,23.2
2024-01-30T14:51:34.398Z,23.21
2024-01-30T14:53:40.182Z,23.2
2024-01-30T14:55:45.637Z,23.21
2024-01-30T14:57:51.453Z,23.2
2024-01-30T14:59:57.136Z,23.2
2024-01-30T15:02:02.692Z,23.2
2024-01-30T15:04:08.637Z,23.21
2024-01-30T15:06:14.271Z,23.21
2024-01-30T15:08:19.855Z,23.2
2024-01-30T15:10:29.520Z,23.21
2024-01-30T15:12:35.301Z,23.21
2024-01-30T15:14:40.723Z,23.21
2024-01-30T15:16:46.208Z,23.2
2024-01-30T15:18:52.015Z,23.2
2024-01-30T15:20:58.188Z,23.2
2024-01-30T15:23:03.725Z,23.2
2024-01-30T15:25:09.193Z,23.19
2024-01-30T15:27:15.111Z,23.19
2024-01-30T15:29:20.459Z,23.19
2024-01-30T15:31:25.820Z,23.19
2024-01-30T15:33:31.266Z,23.18
2024-01-30T15:35:36.691Z,23.16
2024-01-30T15:37:42.474Z,23.15
2024-01-30T15:39:47.788Z,23.15
2024-01-30T15:41:53.514Z,23.14
2024-01-30T15:43:59.267Z,23.13
2024-01-30T15:46:04.940Z,23.13
2024-01-30T15:48:10.414Z,23.13
2024-01-30T15:50:16.055Z,23.12
2024-01-30T15:52:21.889Z,23.1
2024-01-30T15:54:27.602Z,23.09
2024-01-30T15:56:33.333Z,23.08
2024-01-30T15:58:38.826Z,23.06
2024-01-30T16:00:44.342Z,23.05
2024-01-30T16:02:50.082Z,23.04
2024-01-30T16:04:56.205Z,23.01
2024-01-30T16:07:02.200Z,23
2024-01-30T16:09:08.026Z,22.98
2024-01-30T16:11:13.471Z,22.97
2024-01-30T16:13:19.049Z,22.96
2024-01-30T16:15:24.863Z,22.94
2024-01-30T16:17:31.077Z,22.93
2024-01-30T16:19:41.236Z,22.92
2024-01-30T16:21:47.741Z,22.89
2024-01-30T16:23:53.383Z,22.87
2024-01-30T16:25:58.710Z,22.87
2024-01-30T16:28:04.279Z,22.87
2024-01-30T16:30:10.122Z,22.87
2024-01-30T16:32:15.878Z,22.88
2024-01-30T16:34:21.545Z,22.88
2024-01-30T16:36:27.156Z,22.89
2024-01-30T16:38:32.594Z,22.91
2024-01-30T16:40:38.117Z,22.92
2024-01-30T16:42:43.785Z,22.93
2024-01-30T16:44:49.336Z,22.95
2024-01-30T16:46:54.771Z,22.95
2024-01-30T16:49:00.332Z,22.96
2024-01-30T16:51:06.079Z,22.96
2024-01-30T16:53:11.722Z,22.96
2024-01-30T16:55:17.169Z,22.96
2024-01-30T16:57:22.698Z,22.97
2024-01-30T16:59:28.226Z,22.97
2024-01-30T17:01:33.954Z,22.98
2024-01-30T17:03:39.727Z,22.99
2024-01-30T17:05:44.991Z,23
2024-01-30T17:07:50.877Z,23.01
2024-01-30T17:09:56.459Z,23
2024-01-30T17:12:01.898Z,23.01
2024-01-30T17:14:07.748Z,23.01
2024-01-30T17:16:13.192Z,23.02
2024-01-30T17:18:21.204Z,23.03
2024-01-30T17:20:26.969Z,23.03
2024-01-30T17:22:33.017Z,23.03
2024-01-30T17:24:46.169Z,23.03
2024-01-30T17:26:55.584Z,23.03
2024-01-30T17:29:01.322Z,23.04
2024-01-30T17:31:06.851Z,23.03
2024-01-30T17:33:12.352Z,23.04
2024-01-30T17:35:18.313Z,23.04
2024-01-30T17:37:24.285Z,23.04
2024-01-30T17:39:29.849Z,23.05
2024-01-30T17:41:35.268Z,23.04
2024-01-30T17:43:41.036Z,23.03
2024-01-30T17:45:46.572Z,23.03
2024-01-30T17:47:52.079Z,23.02
2024-01-30T17:49:57.740Z,23.03
2024-01-30T17:52:03.292Z,23.03
2024-01-30T17:54:08.835Z,23.04
2024-01-30T17:56:14.162Z,23.03
2024-01-30T17:58:19.861Z,23.03
2024-01-30T18:00:25.560Z,23.02
2024-01-30T18:02:31.640Z,23.02
2024-01-30T18:04:37.256Z,23.01
2024-01-30T18:06:43.140Z,23.01
2024-01-30T18:08:48.753Z,22.99
2024-01-30T18:10:55.394Z,22.98
2024-01-30T18:13:02.764Z,22.97
2024-01-30T18:15:08.377Z,22.97
2024-01-30T18:17:13.893Z,22.97
2024-01-30T18:19:19.492Z,22.97
2024-01-30T18:21:25.605Z,22.96
2024-01-30T18:23:30.926Z,22.95
2024-01-30T18:25:36.248Z,22.95
2024-01-30T18:27:42.129Z,22.94
2024-01-30T18:29:48.493Z,22.94
2024-01-30T18:31:59.861Z,22.94
2024-01-30T18:34:05.585Z,22.94
2024-01-30T18:36:11.167Z,22.93
2024-01-30T18:38:16.643Z,22.93
2024-01-30T18:40:22.398Z,22.94
2024-01-30T18:42:28.089Z,22.94
2024-01-30T18:44:33.729Z,22.93
2024-01-30T18:46:39.258Z,22.92
2024-01-30T18:48:46.887Z,22.91
2024-01-30T18:50:54.150Z,22.91
2024-01-30T18:52:59.698Z,22.9
2024-01-30T18:55:05.453Z,22.89
2024-01-30T18:57:11.079Z,22.89
2024-01-30T18:59:16.635Z,22.88
2024-01-30T19:01:22.454Z,22.89
2024-01-30T19:03:28.089Z,22.9
2024-01-30T19:05:33.820Z,22.91
2024-01-30T19:07:39.666Z,22.93
2024-01-30T19:09:45.266Z,22.93
2024-01-30T19:11:50.810Z,22.92
2024-01-30T19:13:56.260Z,22.91
2024-01-30T19:16:01.692Z,22.89
2024-01-30T19:18:07.437Z,22.88
2024-01-30T19:20:14.427Z,22.86
2024-01-30T19:22:19.939Z,22.84
2024-01-30T19:24:25.385Z,22.83
2024-01-30T19:26:30.839Z,22.84
2024-01-30T19:28:36.306Z,22.84
2024-01-30T19:30:42.028Z,22.82
2024-01-30T19:32:47.523Z,22.82
2024-01-30T19:34:53.020Z,22.8
2024-01-30T19:36:58.575Z,22.78
2024-01-30T19:39:04.194Z,22.78
2024-01-30T19:41:09.504Z,22.77
2024-01-30T19:43:14.795Z,22.78
2024-01-30T19:45:20.327Z,22.78
2024-01-30T19:47:25.744Z,22.78
2024-01-30T19:49:31.230Z,22.77
2024-01-30T19:51:36.693Z,22.78
2024-01-30T19:53:42.025Z,22.8
2024-01-30T19:55:47.854Z,22.78
2024-01-30T19:57:53.413Z,22.79
2024-01-30T19:59:59.036Z,22.78
2024-01-30T20:02:07.091Z,22.79
2024-01-30T20:04:12.722Z,22.79
2024-01-30T20:06:18.526Z,22.79
2024-01-30T20:08:23.954Z,22.79
2024-01-30T20:10:29.567Z,22.81
2024-01-30T20:12:35.464Z,22.84
2024-01-30T20:14:41.095Z,22.84
2024-01-30T20:16:46.290Z,22.86
2024-01-30T20:18:51.753Z,22.9
2024-01-30T20:20:57.530Z,22.93
2024-01-30T20:23:03.052Z,22.95
2024-01-30T20:27:23.671Z,22.95
2024-01-30T20:29:29.013Z,22.94
2024-01-30T20:31:34.572Z,22.94
2024-01-30T20:33:40.495Z,22.93
2024-01-30T20:35:46.151Z,22.92
2024-01-30T20:37:51.484Z,22.92
2024-01-30T20:39:57.096Z,22.91
2024-01-30T20:42:02.664Z,22.9
2024-01-30T20:44:08.516Z,22.9
2024-01-30T20:46:13.977Z,22.89
2024-01-30T20:48:19.788Z,22.89
2024-01-30T20:50:25.707Z,22.88
2024-01-30T20:52:31.493Z,22.88
2024-01-30T20:54:37.272Z,22.88
2024-01-30T20:56:42.708Z,22.88
2024-01-30T20:58:48.163Z,22.88
2024-01-30T21:00:53.845Z,22.88
2024-01-30T21:02:59.765Z,22.88
2024-01-30T21:05:05.827Z,22.88
2024-01-30T21:07:11.845Z,22.87
2024-01-30T21:09:17.516Z,22.88
2024-01-30T21:11:22.944Z,22.85
2024-01-30T21:13:28.390Z,22.83
2024-01-30T21:15:34.156Z,22.83
2024-01-30T21:17:39.843Z,22.8
2024-01-30T21:19:45.373Z,22.79
2024-01-30T21:21:51.185Z,22.79
2024-01-30T21:23:56.719Z,22.78
2024-01-30T21:26:02.877Z,22.78
2024-01-30T21:28:08.368Z,22.78
2024-01-30T21:30:13.851Z,22.78
2024-01-30T21:32:19.531Z,22.8
2024-01-30T21:34:25.124Z,22.8
2024-01-30T21:36:30.594Z,22.79
2024-01-30T21:38:36.028Z,22.82
2024-01-30T21:40:41.408Z,22.82
2024-01-30T21:42:47.435Z,22.83
2024-01-30T21:44:52.866Z,22.84
2024-01-30T21:46:58.400Z,22.84
2024-01-30T21:49:03.980Z,22.85
2024-01-30T21:51:09.811Z,22.86
2024-01-30T21:53:15.592Z,22.87
2024-01-30T21:55:21.251Z,22.87
2024-01-30T21:57:27.002Z,22.89
2024-01-30T21:59:32.596Z,22.89
2024-01-30T22:01:38.283Z,22.88
2024-01-30T22:03:44.108Z,22.89
2024-01-30T22:05:49.540Z,22.89
2024-01-30T22:07:55.121Z,22.88
2024-01-30T22:10:00.938Z,22.88
2024-01-30T22:12:06.568Z,22.88
2024-01-30T22:14:12.018Z,22.88
2024-01-30T22:16:17.461Z,22.87
2024-01-30T22:18:22.920Z,22.87
2024-01-30T22:20:28.495Z,22.86
2024-01-30T22:22:34.115Z,22.86
2024-01-30T22:24:39.796Z,22.85
2024-01-30T22:26:45.389Z,22.84
2024-01-30T22:28:50.723Z,22.83
2024-01-30T22:30:56.284Z,22.83
2024-01-30T22:33:02.293Z,22.83
2024-01-30T22:35:07.940Z,22.83
2024-01-30T22:37:13.446Z,22.82
2024-01-30T22:39:18.920Z,22.82
2024-01-30T22:41:24.306Z,22.82
2024-01-30T22:43:30.787Z,22.82
2024-01-30T22:45:36.481Z,22.82
2024-01-30T22:47:42.024Z,22.81
2024-01-30T22:49:47.954Z,22.81
2024-01-30T22:51:53.839Z,22.82
2024-01-30T22:53:59.376Z,22.81
2024-01-30T22:56:04.934Z,22.82
2024-01-30T22:58:10.478Z,22.82
2024-01-30T23:00:16.013Z,22.83
2024-01-30T23:02:21.534Z,22.83
2024-01-30T23:04:27.023Z,22.82
2024-01-30T23:06:32.772Z,22.83
2024-01-30T23:08:38.507Z,22.82
2024-01-30T23:10:43.854Z,22.8
2024-01-30T23:12:49.454Z,22.81
2024-01-30T23:14:54.899Z,22.81
2024-01-30T23:17:00.399Z,22.82
2024-01-30T23:19:05.869Z,22.81
2024-01-30T23:21:11.667Z,22.81
2024-01-30T23:23:17.418Z,22.81
2024-01-30T23:25:23.026Z,22.81
2024-01-30T23:27:28.661Z,22.81
2024-01-30T23:29:34.135Z,22.81
2024-01-30T23:31:39.598Z,22.8
2024-01-30T23:33:45.434Z,22.8
2024-01-30T23:35:50.937Z,22.79
2024-01-30T23:37:56.426Z,22.79
2024-01-30T23:40:01.969Z,22.78
2024-01-30T23:42:07.691Z,22.79
2024-01-30T23:44:13.329Z,22.78
2024-01-30T23:46:18.796Z,22.78
2024-01-30T23:48:24.374Z,22.77
2024-01-30T23:50:30.205Z,22.77
2024-01-30T23:52:35.809Z,22.75
2024-01-30T23:54:41.446Z,22.75
2024-01-30T23:56:46.780Z,22.74
2024-01-30T23:58:52.212Z,22.74
